Terminal Aerodrome Forecast
Issued by NWS

Home | Current Version | Previous Version | Text Only | Print | Product List | Glossary On
Versions: 1 2 3 4 5 6 7 8 9 10 11 12 13 14 15 16 17 18 19 20
000
FTUS46 KMTR 202300
TAFSNS
TAF
KSNS 202339Z 2100/2124 12007KT P6SM -SHRA FEW018 BKN030 OVC090
     FM210500 00000KT P6SM BKN050
     FM211500 11004KT P6SM SCT050 BKN100
     FM212000 28008KT P6SM SCT050 BKN100=

USA.gov is the U.S. government's official web portal to all federal, state and local government web resources and services.